createdAt,value
2018-01-11T00:00:04.354Z,77.35
2018-01-11T00:02:30.342Z,77.21
2018-01-11T00:04:56.283Z,77.03
2018-01-11T00:07:22.234Z,77.13
2018-01-11T00:09:49.913Z,77.49
2018-01-11T00:12:15.925Z,77.70
2018-01-11T00:14:44.403Z,77.24
2018-01-11T00:17:10.387Z,77.16
2018-01-11T00:19:39.861Z,77.51
2018-01-11T00:22:05.898Z,77.68
2018-01-11T00:24:35.477Z,77.45
2018-01-11T00:27:01.420Z,77.17
2018-01-11T00:29:29.361Z,77.43
2018-01-11T00:31:55.313Z,77.81
2018-01-11T00:34:24.405Z,77.64
2018-01-11T00:36:50.393Z,77.46
2018-01-11T00:39:16.366Z,78.23
2018-01-11T00:41:42.352Z,78.95
2018-01-11T00:44:08.276Z,79.18
2018-01-11T00:46:35.240Z,78.63
2018-01-11T00:49:01.221Z,78.55
2018-01-11T00:51:30.314Z,78.36
2018-01-11T00:53:56.341Z,78.63
2018-01-11T00:56:25.644Z,79.88
2018-01-11T00:58:51.646Z,79.73
2018-01-11T01:01:20.845Z,79.54
2018-01-11T01:03:46.792Z,79.68
2018-01-11T01:06:15.949Z,79.60
2018-01-11T01:08:41.917Z,79.29
2018-01-11T01:11:09.073Z,79.34
2018-01-11T01:13:35.001Z,79.53
2018-01-11T01:16:00.931Z,79.51
2018-01-11T01:18:26.910Z,79.51
2018-01-11T01:20:52.877Z,79.60
2018-01-11T01:23:22.066Z,79.50
2018-01-11T01:25:48.003Z,79.48
2018-01-11T01:28:15.352Z,79.52
2018-01-11T01:30:41.350Z,79.54
2018-01-11T01:33:10.653Z,79.40
2018-01-11T01:35:36.654Z,79.29
2018-01-11T01:38:04.714Z,78.96
2018-01-11T01:40:30.722Z,78.56
2018-01-11T01:43:00.246Z,78.50
2018-01-11T01:45:26.200Z,79.16
2018-01-11T01:47:55.098Z,80.01
2018-01-11T01:50:21.096Z,80.27
2018-01-11T01:52:47.047Z,80.43
2018-01-11T01:55:13.051Z,80.28
2018-01-11T01:57:39.111Z,79.71
2018-01-11T02:00:06.417Z,79.49
2018-01-11T02:02:32.482Z,79.47
2018-01-11T02:05:00.350Z,79.62
2018-01-11T02:07:26.371Z,80.06
2018-01-11T02:09:55.396Z,80.09
2018-01-11T02:12:21.374Z,80.05
2018-01-11T02:14:50.851Z,79.96
2018-01-11T02:17:16.825Z,80.00
2018-01-11T02:19:44.687Z,79.83
2018-01-11T02:22:10.669Z,80.14
2018-01-11T02:24:40.371Z,80.24
2018-01-11T02:27:06.347Z,80.50
2018-01-11T02:29:32.341Z,80.40
2018-01-11T02:31:58.317Z,80.13
2018-01-11T02:34:24.327Z,80.55
2018-01-11T02:36:51.699Z,80.71
2018-01-11T02:39:17.652Z,80.17
2018-01-11T02:41:46.518Z,79.63
2018-01-11T02:44:12.469Z,79.95
2018-01-11T02:46:42.357Z,79.96
2018-01-11T02:49:08.304Z,79.77
2018-01-11T02:51:35.725Z,79.85
2018-01-11T02:54:01.668Z,80.00
2018-01-11T02:56:30.628Z,80.48
2018-01-11T02:58:56.548Z,80.39
2018-01-11T03:01:24.727Z,80.43
2018-01-11T03:03:50.766Z,80.24
2018-01-11T03:06:16.779Z,79.76
2018-01-11T03:08:42.739Z,79.82
2018-01-11T03:11:08.719Z,80.08
2018-01-11T03:13:36.568Z,80.14
2018-01-11T03:16:02.654Z,80.83
2018-01-11T03:18:32.358Z,80.95
2018-01-11T03:20:58.328Z,80.32
2018-01-11T03:23:27.506Z,80.19
2018-01-11T03:25:53.526Z,80.37
2018-01-11T03:28:21.437Z,80.20
2018-01-11T03:30:47.450Z,80.35
2018-01-11T03:33:15.315Z,80.58
2018-01-11T03:35:41.284Z,80.74
2018-01-11T03:38:10.750Z,81.54
2018-01-11T03:40:36.754Z,81.90
2018-01-11T03:43:02.813Z,82.06
2018-01-11T03:45:28.834Z,81.95
2018-01-11T03:47:54.791Z,81.96
2018-01-11T03:50:21.787Z,81.63
2018-01-11T03:52:47.785Z,81.63
2018-01-11T03:55:16.804Z,81.48
2018-01-11T03:57:42.810Z,81.29
2018-01-11T04:00:12.218Z,81.19
2018-01-11T04:02:38.250Z,81.45
2018-01-11T04:05:07.556Z,81.86
2018-01-11T04:07:33.565Z,81.72
2018-01-11T04:10:01.549Z,81.42
2018-01-11T04:12:27.529Z,81.55
2018-01-11T04:14:55.332Z,81.89
2018-01-11T04:17:21.362Z,82.23
2018-01-11T04:19:47.425Z,82.52
2018-01-11T04:22:13.410Z,82.46
2018-01-11T04:24:39.395Z,82.44
2018-01-11T04:27:08.500Z,82.50
2018-01-11T04:29:34.554Z,82.11
2018-01-11T04:32:02.500Z,81.98
2018-01-11T04:34:28.470Z,82.23
2018-01-11T04:36:56.593Z,82.29
2018-01-11T04:39:22.606Z,82.54
2018-01-11T04:41:52.486Z,82.66
2018-01-11T04:44:18.547Z,82.77
2018-01-11T04:46:47.726Z,82.94
2018-01-11T04:49:13.715Z,82.53
2018-01-11T04:51:40.893Z,82.52
2018-01-11T04:54:06.877Z,82.58
2018-01-11T04:56:32.886Z,82.74
2018-01-11T04:58:58.929Z,83.12
2018-01-11T05:01:24.962Z,83.17
2018-01-11T05:03:54.112Z,83.45
2018-01-11T05:06:20.126Z,83.59
2018-01-11T05:08:47.299Z,83.59
2018-01-11T05:11:13.295Z,83.47
2018-01-11T05:13:42.480Z,83.51
2018-01-11T05:16:08.462Z,83.47
2018-01-11T05:18:37.468Z,83.59
2018-01-11T05:21:03.458Z,82.61
2018-01-11T05:23:32.326Z,81.71
2018-01-11T05:25:58.346Z,81.53
2018-01-11T05:28:27.756Z,81.63
2018-01-11T05:30:53.696Z,81.81
2018-01-11T05:33:19.707Z,81.89
2018-01-11T05:35:45.732Z,82.49
2018-01-11T05:38:11.720Z,82.41
2018-01-11T05:40:37.711Z,82.03
2018-01-11T05:43:03.645Z,82.39
2018-01-11T05:45:33.210Z,82.78
2018-01-11T05:47:59.234Z,82.89
2018-01-11T05:50:26.972Z,83.37
2018-01-11T05:52:52.908Z,83.75
2018-01-11T05:55:21.702Z,83.67
2018-01-11T05:57:47.928Z,83.77
2018-01-11T06:00:17.490Z,84.14
2018-01-11T06:02:43.483Z,84.07
2018-01-11T06:05:12.318Z,83.76
2018-01-11T06:07:38.320Z,83.48
2018-01-11T06:10:04.275Z,83.39
2018-01-11T06:12:30.287Z,83.32
2018-01-11T06:14:56.267Z,82.82
2018-01-11T06:17:23.436Z,83.22
2018-01-11T06:19:49.431Z,83.68
2018-01-11T06:22:18.520Z,83.69
2018-01-11T06:24:44.533Z,83.10
2018-01-11T06:27:13.369Z,83.34
2018-01-11T06:29:39.376Z,83.39
2018-01-11T06:32:07.252Z,83.42
2018-01-11T06:34:33.195Z,83.48
2018-01-11T06:37:02.700Z,83.41
2018-01-11T06:39:28.673Z,83.11
2018-01-11T06:41:57.444Z,82.90
2018-01-11T06:44:23.454Z,82.31
2018-01-11T06:46:49.457Z,81.29
2018-01-11T06:49:15.475Z,81.12
2018-01-11T06:51:41.472Z,80.83
2018-01-11T06:54:08.839Z,80.73
2018-01-11T06:56:34.782Z,81.73
2018-01-11T06:59:03.912Z,81.52
2018-01-11T07:01:29.923Z,81.53
2018-01-11T07:03:58.627Z,81.66
2018-01-11T07:06:24.613Z,81.50
2018-01-11T07:08:52.545Z,81.51
2018-01-11T07:11:18.497Z,81.38
2018-01-11T07:13:47.762Z,81.33
2018-01-11T07:16:13.782Z,81.45
2018-01-11T07:18:42.771Z,82.29
2018-01-11T07:21:08.829Z,82.33
2018-01-11T07:23:34.842Z,82.45
2018-01-11T07:26:00.894Z,82.41
2018-01-11T07:28:26.836Z,82.18
2018-01-11T07:30:54.213Z,82.60
2018-01-11T07:33:20.226Z,82.31
2018-01-11T07:35:49.240Z,82.27
2018-01-11T07:38:15.253Z,82.39
2018-01-11T07:40:43.323Z,82.31
2018-01-11T07:43:09.373Z,82.22
2018-01-11T07:45:38.595Z,81.88
2018-01-11T07:48:04.592Z,82.38
2018-01-11T07:50:32.542Z,82.24
2018-01-11T07:52:58.520Z,81.41
2018-01-11T07:55:27.708Z,81.10
2018-01-11T07:57:53.677Z,80.35
2018-01-11T08:00:19.682Z,79.21
2018-01-11T08:02:45.666Z,78.89
2018-01-11T08:05:11.652Z,78.00
2018-01-11T08:07:39.385Z,77.16
2018-01-11T08:10:05.374Z,76.94
2018-01-11T08:12:34.474Z,76.27
2018-01-11T08:15:00.458Z,74.28
2018-01-11T08:17:28.404Z,73.02
2018-01-11T08:19:54.329Z,72.37
2018-01-11T08:22:23.675Z,72.60
2018-01-11T08:24:49.637Z,73.29
2018-01-11T08:27:19.579Z,72.79
2018-01-11T08:29:45.571Z,72.05
2018-01-11T08:32:12.825Z,72.49
2018-01-11T08:34:38.789Z,71.93
2018-01-11T08:37:04.810Z,70.96
2018-01-11T08:39:30.814Z,70.09
2018-01-11T08:41:56.817Z,70.27
2018-01-11T08:44:24.369Z,70.30
2018-01-11T08:46:50.332Z,69.48
2018-01-11T08:49:19.362Z,67.81
2018-01-11T08:51:45.325Z,67.41
2018-01-11T08:54:15.339Z,67.74
2018-01-11T08:56:41.332Z,67.40
2018-01-11T08:59:08.343Z,68.11
2018-01-11T09:01:34.325Z,68.31
2018-01-11T09:04:03.344Z,68.46
2018-01-11T09:06:29.293Z,68.43
2018-01-11T09:08:58.573Z,68.15
2018-01-11T09:11:24.567Z,68.70
2018-01-11T09:13:50.564Z,68.17
2018-01-11T09:16:16.618Z,67.74
2018-01-11T09:18:42.636Z,68.18
2018-01-11T09:21:10.045Z,70.25
2018-01-11T09:23:36.047Z,70.70
2018-01-11T09:26:05.278Z,71.37
2018-01-11T09:28:31.275Z,72.05
2018-01-11T09:30:59.233Z,72.79
2018-01-11T09:33:25.213Z,73.03
2018-01-11T09:35:54.464Z,71.73
2018-01-11T09:38:20.394Z,71.08
2018-01-11T09:40:49.815Z,70.19
2018-01-11T09:43:15.919Z,68.96
2018-01-11T09:45:43.178Z,68.29
2018-01-11T09:48:09.146Z,67.41
2018-01-11T09:50:35.075Z,66.97
2018-01-11T09:53:01.050Z,67.40
2018-01-11T09:55:27.047Z,65.89
2018-01-11T09:57:55.889Z,65.75
2018-01-11T10:00:21.957Z,65.09
2018-01-11T10:02:49.703Z,64.13
2018-01-11T10:05:15.686Z,64.52
2018-01-11T10:07:44.790Z,61.41
2018-01-11T10:10:10.759Z,57.92
2018-01-11T10:12:39.814Z,55.33
2018-01-11T10:15:05.760Z,54.52
2018-01-11T10:17:33.670Z,52.46
2018-01-11T10:19:59.674Z,51.40
2018-01-11T10:22:28.943Z,49.16
2018-01-11T10:24:54.960Z,46.84
2018-01-11T10:27:20.926Z,46.32
2018-01-11T10:29:46.889Z,46.43
2018-01-11T10:32:12.856Z,45.56
2018-01-11T10:34:40.862Z,45.92
2018-01-11T10:37:06.901Z,46.25
2018-01-11T10:39:34.626Z,47.84
2018-01-11T10:42:00.599Z,47.80
2018-01-11T10:44:30.153Z,50.30
2018-01-11T10:46:56.153Z,50.30
2018-01-11T10:49:25.278Z,50.61
2018-01-11T10:51:51.244Z,50.94
2018-01-11T10:54:20.072Z,53.26
2018-01-11T10:56:46.090Z,54.60
2018-01-11T10:59:13.913Z,55.50
2018-01-11T11:01:46.025Z,56.24
2018-01-11T11:04:12.023Z,57.59
2018-01-11T11:06:38.035Z,57.44
2018-01-11T11:09:04.039Z,57.61
2018-01-11T11:11:30.094Z,58.07
2018-01-11T11:13:56.060Z,57.87
2018-01-11T11:16:22.024Z,59.10
2018-01-11T11:18:48.051Z,58.41
2018-01-11T11:21:15.470Z,57.66
2018-01-11T11:23:41.424Z,57.40
2018-01-11T11:26:10.610Z,57.25
2018-01-11T11:28:36.606Z,57.11
2018-01-11T11:31:05.946Z,57.26
2018-01-11T11:33:31.948Z,57.84
2018-01-11T11:36:01.210Z,57.99
2018-01-11T11:38:27.285Z,58.38
2018-01-11T11:40:53.277Z,58.38
2018-01-11T11:43:19.233Z,56.81
2018-01-11T11:45:45.243Z,57.99
2018-01-11T11:48:11.274Z,57.65
2018-01-11T11:50:37.261Z,58.51
2018-01-11T11:53:06.863Z,57.37
2018-01-11T11:55:32.808Z,57.35
2018-01-11T11:58:01.861Z,56.43
2018-01-11T12:00:27.867Z,57.67
2018-01-11T12:02:56.887Z,58.73
2018-01-11T12:05:22.956Z,58.14
2018-01-11T12:07:49.780Z,58.42
2018-01-11T12:10:15.720Z,58.54
2018-01-11T12:12:45.141Z,58.26
2018-01-11T12:15:11.153Z,58.21
2018-01-11T12:17:37.181Z,58.68
2018-01-11T12:20:03.215Z,58.72
2018-01-11T12:22:29.164Z,59.25
2018-01-11T12:24:56.883Z,57.85
2018-01-11T12:27:22.793Z,57.69
2018-01-11T12:29:51.100Z,58.04
2018-01-11T12:32:17.109Z,57.46
2018-01-11T12:34:46.842Z,57.16
2018-01-11T12:37:12.890Z,58.06
2018-01-11T12:39:40.759Z,57.60
2018-01-11T12:42:06.774Z,58.80
2018-01-11T12:44:35.369Z,58.02
2018-01-11T12:47:01.313Z,57.16
2018-01-11T12:49:31.131Z,56.66
2018-01-11T12:51:57.123Z,56.63
2018-01-11T12:54:23.114Z,56.12
2018-01-11T12:56:49.078Z,55.26
2018-01-11T12:59:15.056Z,55.52
2018-01-11T13:01:41.967Z,56.60
2018-01-11T13:04:07.948Z,58.06
2018-01-11T13:06:36.035Z,59.74
2018-01-11T13:09:02.062Z,60.62
2018-01-11T13:11:31.218Z,60.92
2018-01-11T13:13:57.227Z,61.24
2018-01-11T13:16:27.230Z,61.59
2018-01-11T13:18:53.258Z,61.40
2018-01-11T13:21:20.279Z,61.69
2018-01-11T13:23:46.272Z,60.99
2018-01-11T13:26:15.552Z,58.01
2018-01-11T13:28:41.562Z,55.84
2018-01-11T13:31:07.538Z,52.74
2018-01-11T13:33:33.529Z,51.07
2018-01-11T13:35:59.521Z,50.16
2018-01-11T13:38:27.020Z,50.41
2018-01-11T13:40:53.047Z,50.92
2018-01-11T13:43:22.192Z,50.10
2018-01-11T13:45:48.170Z,48.61
2018-01-11T13:48:16.216Z,48.84
2018-01-11T13:50:42.219Z,47.75
2018-01-11T13:53:11.561Z,47.59
2018-01-11T13:55:37.579Z,47.74
2018-01-11T13:58:06.610Z,48.07
2018-01-11T14:00:32.564Z,47.80
2018-01-11T14:03:01.961Z,47.29
2018-01-11T14:05:27.940Z,47.05
2018-01-11T14:07:53.942Z,47.22
2018-01-11T14:10:19.971Z,47.30
2018-01-11T14:12:45.982Z,45.38
2018-01-11T14:15:11.997Z,47.39
2018-01-11T14:17:37.975Z,47.65
2018-01-11T14:20:07.326Z,48.08
2018-01-11T14:22:33.327Z,47.93
2018-01-11T14:25:01.673Z,48.40
2018-01-11T14:27:27.678Z,47.67
2018-01-11T14:29:56.902Z,47.75
2018-01-11T14:32:22.858Z,48.17
2018-01-11T14:34:50.643Z,48.21
2018-01-11T14:37:16.690Z,47.79
2018-01-11T14:39:45.308Z,47.89
2018-01-11T14:42:11.286Z,47.60
2018-01-11T14:44:37.238Z,47.73
2018-01-11T14:47:03.275Z,46.85
2018-01-11T14:49:29.325Z,47.41
2018-01-11T14:51:58.108Z,48.12
2018-01-11T14:54:24.122Z,47.63
2018-01-11T14:56:51.867Z,48.31
2018-01-11T14:59:17.916Z,49.04
2018-01-11T15:01:47.488Z,48.67
2018-01-11T15:04:13.484Z,48.42
2018-01-11T15:06:42.979Z,48.63
2018-01-11T15:09:09.025Z,49.69
2018-01-11T15:11:38.133Z,49.23
2018-01-11T15:14:04.110Z,48.50
2018-01-11T15:16:31.207Z,49.06
2018-01-11T15:18:57.158Z,50.20
2018-01-11T15:21:23.171Z,51.37
2018-01-11T15:23:49.178Z,52.19
2018-01-11T15:26:15.161Z,52.90
2018-01-11T15:28:42.859Z,53.82
2018-01-11T15:31:08.883Z,55.00
2018-01-11T15:33:37.975Z,55.63
2018-01-11T15:36:03.945Z,56.60
2018-01-11T15:38:32.189Z,57.60
2018-01-11T15:40:58.206Z,58.97
2018-01-11T15:43:27.214Z,59.56
2018-01-11T15:45:53.232Z,60.00
2018-01-11T15:48:22.376Z,60.78
2018-01-11T15:50:48.344Z,61.27
2018-01-11T15:53:17.002Z,61.74
2018-01-11T15:55:43.011Z,62.06
2018-01-11T15:58:08.969Z,62.85
2018-01-11T16:00:34.959Z,63.19
2018-01-11T16:03:00.926Z,63.28
2018-01-11T16:05:28.633Z,63.58
2018-01-11T16:07:54.652Z,63.94
2018-01-11T16:10:23.656Z,64.41
2018-01-11T16:12:49.605Z,64.83
2018-01-11T16:15:18.597Z,65.24
2018-01-11T16:17:44.540Z,65.70
2018-01-11T16:20:12.508Z,65.96
2018-01-11T16:22:38.490Z,66.54
2018-01-11T16:25:08.281Z,67.08
2018-01-11T16:27:34.299Z,67.48
2018-01-11T16:30:03.427Z,67.67
2018-01-11T16:32:29.414Z,67.86
2018-01-11T16:34:55.385Z,67.85
2018-01-11T16:37:21.371Z,67.90
2018-01-11T16:39:47.306Z,68.44
2018-01-11T16:42:13.372Z,68.51
2018-01-11T16:44:39.310Z,68.65
2018-01-11T16:47:08.465Z,68.97
2018-01-11T16:49:34.506Z,69.44
2018-01-11T16:52:03.919Z,69.75
2018-01-11T16:54:29.902Z,69.82
2018-01-11T16:56:59.428Z,70.10
2018-01-11T16:59:25.457Z,70.52
2018-01-11T17:01:52.895Z,70.63
2018-01-11T17:04:18.822Z,70.80
2018-01-11T17:06:48.122Z,71.21
2018-01-11T17:09:14.108Z,71.33
2018-01-11T17:11:40.112Z,71.33
2018-01-11T17:14:06.101Z,71.23
2018-01-11T17:16:32.087Z,71.59
2018-01-11T17:18:59.259Z,71.72
2018-01-11T17:21:25.263Z,71.93
2018-01-11T17:23:53.234Z,71.77
2018-01-11T17:26:19.222Z,72.14
2018-01-11T17:28:48.396Z,72.21
2018-01-11T17:31:14.393Z,72.53
2018-01-11T17:33:44.068Z,73.17
2018-01-11T17:36:10.052Z,73.12
2018-01-11T17:38:37.982Z,72.84
2018-01-11T17:41:03.995Z,73.33
2018-01-11T17:43:33.900Z,73.36
2018-01-11T17:45:59.915Z,73.33
2018-01-11T17:48:25.872Z,73.60
2018-01-11T17:50:51.836Z,73.53
2018-01-11T17:53:17.835Z,73.98
2018-01-11T17:55:43.891Z,73.85
2018-01-11T17:58:09.888Z,74.10
2018-01-11T18:00:38.743Z,74.32
2018-01-11T18:03:04.700Z,74.37
2018-01-11T18:05:33.939Z,74.80
2018-01-11T18:07:59.942Z,75.31
2018-01-11T18:10:29.382Z,75.23
2018-01-11T18:12:55.392Z,75.93
2018-01-11T18:15:23.165Z,76.18
2018-01-11T18:17:49.178Z,76.34
2018-01-11T18:20:18.307Z,76.27
2018-01-11T18:22:44.301Z,76.18
2018-01-11T18:25:10.289Z,76.35
2018-01-11T18:27:36.292Z,76.56
2018-01-11T18:30:02.257Z,76.55
2018-01-11T18:32:30.033Z,76.89
2018-01-11T18:34:56.005Z,77.24
2018-01-11T18:37:24.791Z,77.38
2018-01-11T18:39:50.814Z,77.60
2018-01-11T18:42:19.659Z,77.18
2018-01-11T18:44:45.673Z,77.10
2018-01-11T18:47:15.116Z,76.96
2018-01-11T18:49:41.071Z,76.68
2018-01-11T18:52:08.088Z,76.89
2018-01-11T18:54:34.102Z,76.59
2018-01-11T18:57:03.045Z,75.78
2018-01-11T18:59:29.020Z,75.82
2018-01-11T19:01:55.063Z,76.19
2018-01-11T19:04:21.052Z,76.61
2018-01-11T19:06:47.089Z,77.04
2018-01-11T19:09:14.532Z,77.26
2018-01-11T19:11:40.485Z,77.59
2018-01-11T19:14:09.985Z,77.68
2018-01-11T19:16:36.004Z,77.56
2018-01-11T19:19:04.935Z,77.88
2018-01-11T19:21:30.924Z,78.10
2018-01-11T19:24:00.272Z,78.39
2018-01-11T19:26:26.274Z,79.09
2018-01-11T19:28:54.338Z,78.99
2018-01-11T19:31:20.277Z,78.80
2018-01-11T19:33:48.383Z,78.82
2018-01-11T19:36:14.371Z,78.67
2018-01-11T19:38:40.341Z,78.74
2018-01-11T19:41:06.303Z,78.84
2018-01-11T19:43:32.289Z,78.81
2018-01-11T19:46:01.507Z,78.76
2018-01-11T19:48:27.458Z,79.01
2018-01-11T19:50:54.564Z,78.86
2018-01-11T19:53:20.564Z,78.91
2018-01-11T19:55:49.810Z,79.19
2018-01-11T19:58:15.836Z,79.19
2018-01-11T20:00:45.002Z,79.17
2018-01-11T20:03:10.932Z,79.06
2018-01-11T20:05:38.670Z,79.10
2018-01-11T20:08:04.658Z,79.07
2018-01-11T20:10:34.157Z,79.18
2018-01-11T20:13:00.131Z,79.20
2018-01-11T20:15:26.156Z,79.34
2018-01-11T20:17:52.141Z,79.25
2018-01-11T20:20:18.156Z,79.06
2018-01-11T20:22:45.699Z,79.03
2018-01-11T20:25:11.710Z,79.12
2018-01-11T20:27:40.079Z,79.39
2018-01-11T20:30:06.090Z,79.31
2018-01-11T20:32:35.122Z,79.36
2018-01-11T20:35:01.137Z,79.32
2018-01-11T20:37:31.058Z,79.23
2018-01-11T20:39:57.017Z,79.03
2018-01-11T20:42:24.165Z,78.84
2018-01-11T20:44:50.113Z,78.77
2018-01-11T20:47:19.324Z,78.58
2018-01-11T20:49:45.242Z,78.38
2018-01-11T20:52:11.242Z,78.31
2018-01-11T20:54:37.201Z,78.36
2018-01-11T20:57:03.229Z,78.81
2018-01-11T20:59:30.910Z,79.25
2018-01-11T21:01:56.935Z,79.44
2018-01-11T21:04:26.045Z,79.72
2018-01-11T21:06:52.035Z,80.22
2018-01-11T21:09:20.924Z,80.86
2018-01-11T21:11:46.898Z,81.14
2018-01-11T21:14:16.087Z,81.34
2018-01-11T21:16:42.038Z,81.05
2018-01-11T21:19:09.606Z,81.03
2018-01-11T21:21:35.571Z,80.89
2018-01-11T21:24:04.600Z,81.39
2018-01-11T21:26:30.602Z,81.40
2018-01-11T21:28:56.594Z,81.30
2018-01-11T21:31:22.639Z,81.23
2018-01-11T21:33:48.606Z,81.25
2018-01-11T21:36:16.189Z,81.13
2018-01-11T21:38:42.188Z,81.05
2018-01-11T21:41:11.332Z,80.87
2018-01-11T21:43:37.288Z,80.75
2018-01-11T21:46:05.089Z,81.00
2018-01-11T21:48:31.079Z,81.05
2018-01-11T21:50:59.662Z,81.16
2018-01-11T21:53:25.662Z,81.28
2018-01-11T21:55:54.438Z,81.47
2018-01-11T21:58:20.526Z,81.51
2018-01-11T22:00:50.150Z,81.88
2018-01-11T22:03:16.163Z,81.90
2018-01-11T22:05:42.139Z,81.71
2018-01-11T22:08:08.125Z,81.58
2018-01-11T22:10:34.138Z,81.39
2018-01-11T22:13:01.216Z,81.10
2018-01-11T22:15:27.229Z,81.00
2018-01-11T22:17:56.488Z,81.10
2018-01-11T22:20:22.486Z,81.02
2018-01-11T22:22:50.492Z,81.28
2018-01-11T22:25:16.507Z,81.25
2018-01-11T22:27:45.700Z,81.10
2018-01-11T22:30:11.688Z,81.16
2018-01-11T22:32:40.859Z,81.10
2018-01-11T22:35:06.820Z,81.10
2018-01-11T22:37:34.830Z,80.87
2018-01-11T22:40:00.812Z,80.70
2018-01-11T22:42:26.788Z,80.59
2018-01-11T22:44:52.812Z,80.52
2018-01-11T22:47:18.763Z,80.56
2018-01-11T22:49:46.494Z,80.25
2018-01-11T22:52:12.447Z,80.54
2018-01-11T22:54:41.425Z,81.06
2018-01-11T22:57:07.407Z,80.94
2018-01-11T22:59:36.453Z,81.19
2018-01-11T23:02:02.432Z,81.42
2018-01-11T23:04:32.008Z,81.36
2018-01-11T23:06:58.013Z,81.75
2018-01-11T23:09:25.963Z,81.94
2018-01-11T23:11:52.002Z,82.00
2018-01-11T23:14:20.085Z,82.42
2018-01-11T23:16:46.186Z,82.62
2018-01-11T23:19:12.171Z,82.09
2018-01-11T23:21:38.197Z,82.08
2018-01-11T23:24:04.228Z,82.99
2018-01-11T23:26:32.122Z,83.27
2018-01-11T23:28:58.123Z,83.49
2018-01-11T23:31:27.129Z,83.23
2018-01-11T23:33:53.147Z,83.30
2018-01-11T23:36:22.065Z,82.83
2018-01-11T23:38:48.001Z,82.40
2018-01-11T23:41:16.841Z,83.32
2018-01-11T23:43:42.859Z,83.25
2018-01-11T23:46:10.589Z,82.95
2018-01-11T23:48:36.590Z,82.68
2018-01-11T23:51:06.136Z,82.64
2018-01-11T23:53:32.135Z,82.70
2018-01-11T23:55:58.116Z,82.79
2018-01-11T23:58:24.142Z,82.36
